sensor_id;sensor_type;location;lat;lon;timestamp;temperature;humidity
17215;DHT22;8723;51.502;6.918;2023-04-02T00:02:26;7.30;99.90
17215;DHT22;8723;51.502;6.918;2023-04-02T00:08:20;7.30;99.90
17215;DHT22;8723;51.502;6.918;2023-04-02T00:10:49;7.30;99.90
17215;DHT22;8723;51.502;6.918;2023-04-02T00:13:22;7.30;99.90
17215;DHT22;8723;51.502;6.918;2023-04-02T00:15:55;7.20;99.90
17215;DHT22;8723;51.502;6.918;2023-04-02T00:18:23;7.20;99.90
17215;DHT22;8723;51.502;6.918;2023-04-02T00:20:53;7.10;99.90
17215;DHT22;8723;51.502;6.918;2023-04-02T00:23:22;7.10;99.90
17215;DHT22;8723;51.502;6.918;2023-04-02T00:25:49;7.10;99.90
17215;DHT22;8723;51.502;6.918;2023-04-02T00:28:18;7.00;99.90
17215;DHT22;8723;51.502;6.918;2023-04-02T00:30:51;7.00;99.90
17215;DHT22;8723;51.502;6.918;2023-04-02T00:33:20;7.00;99.90
17215;DHT22;8723;51.502;6.918;2023-04-02T00:35:49;6.90;99.90
17215;DHT22;8723;51.502;6.918;2023-04-02T00:38:19;6.90;99.90
17215;DHT22;8723;51.502;6.918;2023-04-02T00:40:48;6.90;99.90
17215;DHT22;8723;51.502;6.918;2023-04-02T00:43:17;6.90;99.90
17215;DHT22;8723;51.502;6.918;2023-04-02T00:45:46;6.90;99.90
17215;DHT22;8723;51.502;6.918;2023-04-02T00:48:33;6.80;99.90
17215;DHT22;8723;51.502;6.918;2023-04-02T00:51:10;6.80;99.90
17215;DHT22;8723;51.502;6.918;2023-04-02T00:53:39;6.70;99.90
17215;DHT22;8723;51.502;6.918;2023-04-02T00:56:13;6.70;99.90
17215;DHT22;8723;51.502;6.918;2023-04-02T00:58:42;6.70;99.90
17215;DHT22;8723;51.502;6.918;2023-04-02T01:01:15;6.70;99.90
17215;DHT22;8723;51.502;6.918;2023-04-02T01:03:52;6.60;99.90
17215;DHT22;8723;51.502;6.918;2023-04-02T01:06:25;6.60;99.90
17215;DHT22;8723;51.502;6.918;2023-04-02T01:09:06;6.60;99.90
17215;DHT22;8723;51.502;6.918;2023-04-02T01:11:52;6.60;99.90
17215;DHT22;8723;51.502;6.918;2023-04-02T01:14:35;6.60;99.90
17215;DHT22;8723;51.502;6.918;2023-04-02T01:17:13;6.50;99.90
17215;DHT22;8723;51.502;6.918;2023-04-02T01:20:05;6.50;99.90
17215;DHT22;8723;51.502;6.918;2023-04-02T01:22:42;6.60;99.90
17215;DHT22;8723;51.502;6.918;2023-04-02T01:25:18;6.60;99.90
17215;DHT22;8723;51.502;6.918;2023-04-02T01:27:51;6.60;99.90
17215;DHT22;8723;51.502;6.918;2023-04-02T01:30:22;6.50;99.90
17215;DHT22;8723;51.502;6.918;2023-04-02T01:32:51;6.60;99.90
17215;DHT22;8723;51.502;6.918;2023-04-02T01:35:20;6.50;99.90
17215;DHT22;8723;51.502;6.918;2023-04-02T01:37:52;6.50;99.90
17215;DHT22;8723;51.502;6.918;2023-04-02T01:40:32;6.50;99.90
17215;DHT22;8723;51.502;6.918;2023-04-02T01:43:08;6.50;99.90
17215;DHT22;8723;51.502;6.918;2023-04-02T01:45:40;6.40;99.90
17215;DHT22;8723;51.502;6.918;2023-04-02T01:48:13;6.40;99.90
17215;DHT22;8723;51.502;6.918;2023-04-02T01:50:43;6.30;99.90
17215;DHT22;8723;51.502;6.918;2023-04-02T01:53:13;6.30;99.90
17215;DHT22;8723;51.502;6.918;2023-04-02T01:55:43;6.30;99.90
17215;DHT22;8723;51.502;6.918;2023-04-02T01:58:13;6.20;99.90
17215;DHT22;8723;51.502;6.918;2023-04-02T02:00:44;6.30;99.90
17215;DHT22;8723;51.502;6.918;2023-04-02T02:03:14;6.20;99.90
17215;DHT22;8723;51.502;6.918;2023-04-02T02:05:42;6.20;99.90
17215;DHT22;8723;51.502;6.918;2023-04-02T02:08:20;6.20;99.90
17215;DHT22;8723;51.502;6.918;2023-04-02T02:10:48;6.20;99.90
17215;DHT22;8723;51.502;6.918;2023-04-02T02:13:16;6.20;99.90
17215;DHT22;8723;51.502;6.918;2023-04-02T02:15:44;6.20;99.90
17215;DHT22;8723;51.502;6.918;2023-04-02T02:18:12;6.20;99.90
17215;DHT22;8723;51.502;6.918;2023-04-02T02:20:42;6.20;99.90
17215;DHT22;8723;51.502;6.918;2023-04-02T02:23:10;6.20;99.90
17215;DHT22;8723;51.502;6.918;2023-04-02T02:25:37;6.20;99.90
17215;DHT22;8723;51.502;6.918;2023-04-02T02:28:07;6.20;99.90
17215;DHT22;8723;51.502;6.918;2023-04-02T02:30:38;6.20;99.90
17215;DHT22;8723;51.502;6.918;2023-04-02T02:33:14;6.20;99.90
17215;DHT22;8723;51.502;6.918;2023-04-02T02:35:47;6.10;99.90
17215;DHT22;8723;51.502;6.918;2023-04-02T02:38:37;6.10;99.90
17215;DHT22;8723;51.502;6.918;2023-04-02T02:41:11;6.10;99.90
17215;DHT22;8723;51.502;6.918;2023-04-02T02:43:42;6.20;99.90
17215;DHT22;8723;51.502;6.918;2023-04-02T02:46:14;6.10;99.90
17215;DHT22;8723;51.502;6.918;2023-04-02T02:48:43;6.10;99.90
17215;DHT22;8723;51.502;6.918;2023-04-02T02:51:16;6.00;99.90
17215;DHT22;8723;51.502;6.918;2023-04-02T02:53:48;6.00;99.90
17215;DHT22;8723;51.502;6.918;2023-04-02T02:56:16;6.10;99.90
17215;DHT22;8723;51.502;6.918;2023-04-02T02:58:44;6.00;99.90
17215;DHT22;8723;51.502;6.918;2023-04-02T03:01:11;6.00;99.90
17215;DHT22;8723;51.502;6.918;2023-04-02T03:03:38;6.00;99.90
17215;DHT22;8723;51.502;6.918;2023-04-02T03:06:09;5.90;99.90
17215;DHT22;8723;51.502;6.918;2023-04-02T03:08:40;5.90;99.90
17215;DHT22;8723;51.502;6.918;2023-04-02T03:11:11;5.90;99.90
17215;DHT22;8723;51.502;6.918;2023-04-02T03:13:42;5.90;99.90
17215;DHT22;8723;51.502;6.918;2023-04-02T03:16:15;5.90;99.90
17215;DHT22;8723;51.502;6.918;2023-04-02T03:18:46;5.80;99.90
17215;DHT22;8723;51.502;6.918;2023-04-02T03:21:24;5.80;99.90
17215;DHT22;8723;51.502;6.918;2023-04-02T03:23:54;5.80;99.90
17215;DHT22;8723;51.502;6.918;2023-04-02T03:26:26;5.80;99.90
17215;DHT22;8723;51.502;6.918;2023-04-02T03:29:00;5.70;99.90
17215;DHT22;8723;51.502;6.918;2023-04-02T03:31:32;5.70;99.90
17215;DHT22;8723;51.502;6.918;2023-04-02T03:34:04;5.70;99.90
17215;DHT22;8723;51.502;6.918;2023-04-02T03:36:39;5.70;99.90
17215;DHT22;8723;51.502;6.918;2023-04-02T03:39:15;5.70;99.90
17215;DHT22;8723;51.502;6.918;2023-04-02T03:41:46;5.70;99.90
17215;DHT22;8723;51.502;6.918;2023-04-02T03:44:20;5.60;99.90
17215;DHT22;8723;51.502;6.918;2023-04-02T03:46:53;5.60;99.90
17215;DHT22;8723;51.502;6.918;2023-04-02T03:49:30;5.70;99.90
17215;DHT22;8723;51.502;6.918;2023-04-02T03:52:04;5.70;99.90
17215;DHT22;8723;51.502;6.918;2023-04-02T03:54:32;5.70;99.90
17215;DHT22;8723;51.502;6.918;2023-04-02T03:57:00;5.60;99.90
17215;DHT22;8723;51.502;6.918;2023-04-02T03:59:33;5.60;99.90
17215;DHT22;8723;51.502;6.918;2023-04-02T04:02:15;5.70;99.90
17215;DHT22;8723;51.502;6.918;2023-04-02T04:04:46;5.70;99.90
17215;DHT22;8723;51.502;6.918;2023-04-02T04:07:28;5.70;99.90
17215;DHT22;8723;51.502;6.918;2023-04-02T04:09:57;5.70;99.90
17215;DHT22;8723;51.502;6.918;2023-04-02T04:12:29;5.70;99.90
17215;DHT22;8723;51.502;6.918;2023-04-02T04:14:59;5.70;99.90
17215;DHT22;8723;51.502;6.918;2023-04-02T04:17:32;5.70;99.90
17215;DHT22;8723;51.502;6.918;2023-04-02T04:20:10;5.70;99.90
17215;DHT22;8723;51.502;6.918;2023-04-02T04:22:41;5.70;99.90
17215;DHT22;8723;51.502;6.918;2023-04-02T04:25:18;5.70;99.90
17215;DHT22;8723;51.502;6.918;2023-04-02T04:27:55;5.70;99.90
17215;DHT22;8723;51.502;6.918;2023-04-02T04:30:27;5.60;99.90
17215;DHT22;8723;51.502;6.918;2023-04-02T04:32:57;5.60;99.90
17215;DHT22;8723;51.502;6.918;2023-04-02T04:35:29;5.50;99.90
17215;DHT22;8723;51.502;6.918;2023-04-02T04:38:01;5.50;99.90
17215;DHT22;8723;51.502;6.918;2023-04-02T04:40:32;5.50;99.90
17215;DHT22;8723;51.502;6.918;2023-04-02T04:43:02;5.50;99.90
17215;DHT22;8723;51.502;6.918;2023-04-02T04:45:38;5.50;99.90
17215;DHT22;8723;51.502;6.918;2023-04-02T04:48:09;5.50;99.90
17215;DHT22;8723;51.502;6.918;2023-04-02T04:50:46;5.50;99.90
17215;DHT22;8723;51.502;6.918;2023-04-02T04:53:19;5.40;99.90
17215;DHT22;8723;51.502;6.918;2023-04-02T04:55:47;5.40;99.90
17215;DHT22;8723;51.502;6.918;2023-04-02T04:58:20;5.30;99.90
17215;DHT22;8723;51.502;6.918;2023-04-02T05:00:54;5.30;99.90
17215;DHT22;8723;51.502;6.918;2023-04-02T05:03:29;5.30;99.90
17215;DHT22;8723;51.502;6.918;2023-04-02T05:06:02;5.30;99.90
17215;DHT22;8723;51.502;6.918;2023-04-02T05:08:35;5.30;99.90
17215;DHT22;8723;51.502;6.918;2023-04-02T05:11:09;5.30;99.90
17215;DHT22;8723;51.502;6.918;2023-04-02T05:13:41;5.30;99.90
17215;DHT22;8723;51.502;6.918;2023-04-02T05:16:14;5.30;99.90
17215;DHT22;8723;51.502;6.918;2023-04-02T05:18:46;5.30;99.90
17215;DHT22;8723;51.502;6.918;2023-04-02T05:21:19;5.30;99.90
17215;DHT22;8723;51.502;6.918;2023-04-02T05:23:53;5.20;99.90
17215;DHT22;8723;51.502;6.918;2023-04-02T05:26:29;5.20;99.90
17215;DHT22;8723;51.502;6.918;2023-04-02T05:29:01;5.20;99.90
17215;DHT22;8723;51.502;6.918;2023-04-02T05:31:38;5.20;99.90
17215;DHT22;8723;51.502;6.918;2023-04-02T05:34:06;5.20;99.90
17215;DHT22;8723;51.502;6.918;2023-04-02T05:36:33;5.10;99.90
17215;DHT22;8723;51.502;6.918;2023-04-02T05:39:01;5.10;99.90
17215;DHT22;8723;51.502;6.918;2023-04-02T05:41:37;5.10;99.90
17215;DHT22;8723;51.502;6.918;2023-04-02T05:44:07;5.00;99.90
17215;DHT22;8723;51.502;6.918;2023-04-02T05:46:39;5.00;99.90
17215;DHT22;8723;51.502;6.918;2023-04-02T05:49:13;5.00;99.90
17215;DHT22;8723;51.502;6.918;2023-04-02T05:51:46;5.00;99.90
17215;DHT22;8723;51.502;6.918;2023-04-02T05:54:20;5.00;99.90
17215;DHT22;8723;51.502;6.918;2023-04-02T05:56:52;5.00;99.90
17215;DHT22;8723;51.502;6.918;2023-04-02T05:59:23;4.90;99.90
17215;DHT22;8723;51.502;6.918;2023-04-02T06:01:55;4.90;99.90
17215;DHT22;8723;51.502;6.918;2023-04-02T06:04:27;4.80;99.90
17215;DHT22;8723;51.502;6.918;2023-04-02T06:07:02;4.80;99.90
17215;DHT22;8723;51.502;6.918;2023-04-02T06:09:37;4.80;99.90
17215;DHT22;8723;51.502;6.918;2023-04-02T06:12:23;4.90;99.90
17215;DHT22;8723;51.502;6.918;2023-04-02T06:14:53;4.90;99.90
17215;DHT22;8723;51.502;6.918;2023-04-02T06:17:21;4.90;99.90
17215;DHT22;8723;51.502;6.918;2023-04-02T06:19:48;4.90;99.90
17215;DHT22;8723;51.502;6.918;2023-04-02T06:22:22;4.90;99.90
17215;DHT22;8723;51.502;6.918;2023-04-02T06:24:53;5.00;99.90
17215;DHT22;8723;51.502;6.918;2023-04-02T06:27:23;5.00;99.90
17215;DHT22;8723;51.502;6.918;2023-04-02T06:29:56;5.00;99.90
17215;DHT22;8723;51.502;6.918;2023-04-02T06:32:25;4.90;99.90
17215;DHT22;8723;51.502;6.918;2023-04-02T06:34:52;4.90;99.90
17215;DHT22;8723;51.502;6.918;2023-04-02T06:37:24;4.90;99.90
17215;DHT22;8723;51.502;6.918;2023-04-02T06:39:54;5.00;99.90
17215;DHT22;8723;51.502;6.918;2023-04-02T06:42:24;5.00;99.90
17215;DHT22;8723;51.502;6.918;2023-04-02T06:44:52;5.00;99.90
17215;DHT22;8723;51.502;6.918;2023-04-02T06:47:25;5.00;99.90
17215;DHT22;8723;51.502;6.918;2023-04-02T06:49:59;5.00;99.90
17215;DHT22;8723;51.502;6.918;2023-04-02T06:52:33;5.00;99.90
17215;DHT22;8723;51.502;6.918;2023-04-02T06:55:16;5.00;99.90
17215;DHT22;8723;51.502;6.918;2023-04-02T06:57:47;5.00;99.90
17215;DHT22;8723;51.502;6.918;2023-04-02T07:00:24;4.90;99.90
17215;DHT22;8723;51.502;6.918;2023-04-02T07:02:52;4.90;99.90
17215;DHT22;8723;51.502;6.918;2023-04-02T07:05:20;4.90;99.90
17215;DHT22;8723;51.502;6.918;2023-04-02T07:07:47;4.90;99.90
17215;DHT22;8723;51.502;6.918;2023-04-02T07:10:16;4.90;99.90
17215;DHT22;8723;51.502;6.918;2023-04-02T07:12:44;5.00;99.90
17215;DHT22;8723;51.502;6.918;2023-04-02T07:15:14;5.00;99.90
17215;DHT22;8723;51.502;6.918;2023-04-02T07:17:41;5.00;99.90
17215;DHT22;8723;51.502;6.918;2023-04-02T07:20:23;5.10;99.90
17215;DHT22;8723;51.502;6.918;2023-04-02T07:22:51;5.00;99.90
17215;DHT22;8723;51.502;6.918;2023-04-02T07:25:20;5.00;99.90
17215;DHT22;8723;51.502;6.918;2023-04-02T07:27:47;4.90;99.90
17215;DHT22;8723;51.502;6.918;2023-04-02T07:30:14;5.00;99.90
17215;DHT22;8723;51.502;6.918;2023-04-02T07:32:41;4.90;99.90
17215;DHT22;8723;51.502;6.918;2023-04-02T07:35:09;5.00;99.90
17215;DHT22;8723;51.502;6.918;2023-04-02T07:37:36;4.90;99.90
17215;DHT22;8723;51.502;6.918;2023-04-02T07:40:04;5.00;99.90
17215;DHT22;8723;51.502;6.918;2023-04-02T07:42:34;4.90;99.90
17215;DHT22;8723;51.502;6.918;2023-04-02T07:45:02;5.00;99.90
17215;DHT22;8723;51.502;6.918;2023-04-02T07:47:29;5.00;99.90
17215;DHT22;8723;51.502;6.918;2023-04-02T07:49:56;5.00;99.90
17215;DHT22;8723;51.502;6.918;2023-04-02T07:52:23;5.00;99.90
17215;DHT22;8723;51.502;6.918;2023-04-02T07:54:50;5.00;99.90
17215;DHT22;8723;51.502;6.918;2023-04-02T07:57:17;5.00;99.90
17215;DHT22;8723;51.502;6.918;2023-04-02T07:59:45;5.00;99.90
17215;DHT22;8723;51.502;6.918;2023-04-02T08:02:18;5.10;99.90
17215;DHT22;8723;51.502;6.918;2023-04-02T08:04:46;5.00;99.90
17215;DHT22;8723;51.502;6.918;2023-04-02T08:07:13;5.00;99.90
17215;DHT22;8723;51.502;6.918;2023-04-02T08:09:39;5.00;99.90
17215;DHT22;8723;51.502;6.918;2023-04-02T08:12:07;5.00;99.90
17215;DHT22;8723;51.502;6.918;2023-04-02T08:14:34;5.00;99.90
17215;DHT22;8723;51.502;6.918;2023-04-02T08:17:02;5.10;99.90
17215;DHT22;8723;51.502;6.918;2023-04-02T08:19:30;5.10;99.90
17215;DHT22;8723;51.502;6.918;2023-04-02T08:21:58;5.20;99.90
17215;DHT22;8723;51.502;6.918;2023-04-02T08:24:25;5.20;99.90
17215;DHT22;8723;51.502;6.918;2023-04-02T08:26:51;5.20;99.90
17215;DHT22;8723;51.502;6.918;2023-04-02T08:29:19;5.20;99.90
17215;DHT22;8723;51.502;6.918;2023-04-02T08:31:45;5.20;99.90
17215;DHT22;8723;51.502;6.918;2023-04-02T08:34:14;5.20;99.90
17215;DHT22;8723;51.502;6.918;2023-04-02T08:36:42;5.30;99.90
17215;DHT22;8723;51.502;6.918;2023-04-02T08:39:10;5.30;99.90
17215;DHT22;8723;51.502;6.918;2023-04-02T08:41:40;5.40;99.90
17215;DHT22;8723;51.502;6.918;2023-04-02T08:44:20;5.40;99.90
17215;DHT22;8723;51.502;6.918;2023-04-02T08:46:51;5.40;99.90
17215;DHT22;8723;51.502;6.918;2023-04-02T08:49:28;5.50;99.90
17215;DHT22;8723;51.502;6.918;2023-04-02T08:51:55;5.60;99.90
17215;DHT22;8723;51.502;6.918;2023-04-02T08:54:25;5.50;99.90
17215;DHT22;8723;51.502;6.918;2023-04-02T08:56:57;5.60;99.90
17215;DHT22;8723;51.502;6.918;2023-04-02T08:59:30;5.60;99.90
17215;DHT22;8723;51.502;6.918;2023-04-02T09:02:04;5.50;99.90
17215;DHT22;8723;51.502;6.918;2023-04-02T09:04:37;5.60;99.90
17215;DHT22;8723;51.502;6.918;2023-04-02T09:07:07;5.70;99.90
17215;DHT22;8723;51.502;6.918;2023-04-02T09:09:37;5.60;99.90
17215;DHT22;8723;51.502;6.918;2023-04-02T09:12:06;5.60;99.90
17215;DHT22;8723;51.502;6.918;2023-04-02T09:14:42;5.70;99.90
17215;DHT22;8723;51.502;6.918;2023-04-02T09:17:16;5.70;99.90
17215;DHT22;8723;51.502;6.918;2023-04-02T09:19:51;5.70;99.90
17215;DHT22;8723;51.502;6.918;2023-04-02T09:22:21;5.80;99.90
17215;DHT22;8723;51.502;6.918;2023-04-02T09:24:53;5.70;99.90
17215;DHT22;8723;51.502;6.918;2023-04-02T09:27:22;5.80;99.90
17215;DHT22;8723;51.502;6.918;2023-04-02T09:29:53;5.80;99.90
17215;DHT22;8723;51.502;6.918;2023-04-02T09:32:29;5.80;99.90
17215;DHT22;8723;51.502;6.918;2023-04-02T09:35:11;5.80;99.90
17215;DHT22;8723;51.502;6.918;2023-04-02T09:37:40;6.00;99.90
17215;DHT22;8723;51.502;6.918;2023-04-02T09:40:23;6.00;99.90
17215;DHT22;8723;51.502;6.918;2023-04-02T09:43:02;6.10;99.90
17215;DHT22;8723;51.502;6.918;2023-04-02T09:45:29;6.10;99.90
17215;DHT22;8723;51.502;6.918;2023-04-02T09:47:57;6.20;99.90
17215;DHT22;8723;51.502;6.918;2023-04-02T09:50:30;6.20;99.90
17215;DHT22;8723;51.502;6.918;2023-04-02T09:52:57;6.30;99.90
17215;DHT22;8723;51.502;6.918;2023-04-02T09:55:25;6.30;99.90
17215;DHT22;8723;51.502;6.918;2023-04-02T09:58:09;6.20;99.90
17215;DHT22;8723;51.502;6.918;2023-04-02T10:00:37;6.20;99.90
17215;DHT22;8723;51.502;6.918;2023-04-02T10:03:10;6.10;99.90
17215;DHT22;8723;51.502;6.918;2023-04-02T10:05:45;6.10;99.90
17215;DHT22;8723;51.502;6.918;2023-04-02T10:08:19;6.30;99.90
17215;DHT22;8723;51.502;6.918;2023-04-02T10:10:48;6.30;99.90
17215;DHT22;8723;51.502;6.918;2023-04-02T10:13:19;6.40;99.90
17215;DHT22;8723;51.502;6.918;2023-04-02T10:15:53;6.40;99.90
17215;DHT22;8723;51.502;6.918;2023-04-02T10:18:25;6.40;99.90
17215;DHT22;8723;51.502;6.918;2023-04-02T10:20:55;6.40;99.90
17215;DHT22;8723;51.502;6.918;2023-04-02T10:23:24;6.40;99.90
17215;DHT22;8723;51.502;6.918;2023-04-02T10:25:56;6.50;99.90
17215;DHT22;8723;51.502;6.918;2023-04-02T10:28:46;6.60;99.90
17215;DHT22;8723;51.502;6.918;2023-04-02T10:31:19;6.60;99.90
17215;DHT22;8723;51.502;6.918;2023-04-02T10:33:50;6.60;1.00
17215;DHT22;8723;51.502;6.918;2023-04-02T10:36:24;6.60;99.90
17215;DHT22;8723;51.502;6.918;2023-04-02T10:38:59;6.60;99.90
17215;DHT22;8723;51.502;6.918;2023-04-02T10:41:32;6.50;99.90
17215;DHT22;8723;51.502;6.918;2023-04-02T10:44:14;6.60;99.90
17215;DHT22;8723;51.502;6.918;2023-04-02T10:46:50;6.70;99.90
17215;DHT22;8723;51.502;6.918;2023-04-02T10:49:29;6.80;99.90
17215;DHT22;8723;51.502;6.918;2023-04-02T10:52:03;6.70;99.90
17215;DHT22;8723;51.502;6.918;2023-04-02T10:54:42;6.70;99.90
17215;DHT22;8723;51.502;6.918;2023-04-02T10:57:28;6.70;99.90
17215;DHT22;8723;51.502;6.918;2023-04-02T11:00:02;6.80;99.90
17215;DHT22;8723;51.502;6.918;2023-04-02T11:02:37;6.70;99.90
17215;DHT22;8723;51.502;6.918;2023-04-02T11:05:15;6.60;99.90
17215;DHT22;8723;51.502;6.918;2023-04-02T11:08:01;6.70;89.80
17215;DHT22;8723;51.502;6.918;2023-04-02T11:10:32;6.70;98.40
17215;DHT22;8723;51.502;6.918;2023-04-02T11:13:04;6.70;99.90
17215;DHT22;8723;51.502;6.918;2023-04-02T11:15:34;6.80;99.90
17215;DHT22;8723;51.502;6.918;2023-04-02T11:18:01;6.80;99.90
17215;DHT22;8723;51.502;6.918;2023-04-02T11:23:38;7.00;99.90
17215;DHT22;8723;51.502;6.918;2023-04-02T11:26:32;7.00;93.20
17215;DHT22;8723;51.502;6.918;2023-04-02T11:29:09;7.00;98.40
17215;DHT22;8723;51.502;6.918;2023-04-02T11:31:38;7.00;99.50
17215;DHT22;8723;51.502;6.918;2023-04-02T11:34:05;6.90;60.50
17215;DHT22;8723;51.502;6.918;2023-04-02T11:37:00;6.90;99.90
17215;DHT22;8723;51.502;6.918;2023-04-02T11:39:49;6.90;79.90
17215;DHT22;8723;51.502;6.918;2023-04-02T11:42:29;7.00;84.90
17215;DHT22;8723;51.502;6.918;2023-04-02T11:45:00;6.90;50.30
17215;DHT22;8723;51.502;6.918;2023-04-02T11:47:28;7.00;61.80
17215;DHT22;8723;51.502;6.918;2023-04-02T11:50:01;6.90;38.60
17215;DHT22;8723;51.502;6.918;2023-04-02T11:52:33;6.80;26.30
17215;DHT22;8723;51.502;6.918;2023-04-02T11:55:16;6.90;50.40
17215;DHT22;8723;51.502;6.918;2023-04-02T11:57:54;7.10;70.60
17215;DHT22;8723;51.502;6.918;2023-04-02T12:00:49;7.30;80.90
17215;DHT22;8723;51.502;6.918;2023-04-02T12:03:35;7.30;35.00
17215;DHT22;8723;51.502;6.918;2023-04-02T12:06:11;7.30;31.80
17215;DHT22;8723;51.502;6.918;2023-04-02T12:08:52;7.30;15.60
17215;DHT22;8723;51.502;6.918;2023-04-02T12:11:32;7.30;33.40
17215;DHT22;8723;51.502;6.918;2023-04-02T12:13:59;7.20;14.10
17215;DHT22;8723;51.502;6.918;2023-04-02T12:16:26;7.20;30.60
17215;DHT22;8723;51.502;6.918;2023-04-02T12:18:58;7.30;23.70
17215;DHT22;8723;51.502;6.918;2023-04-02T12:21:27;7.30;23.40
17215;DHT22;8723;51.502;6.918;2023-04-02T12:23:57;7.40;17.30
17215;DHT22;8723;51.502;6.918;2023-04-02T12:26:31;7.50;15.40
17215;DHT22;8723;51.502;6.918;2023-04-02T12:29:22;7.40;6.00
17215;DHT22;8723;51.502;6.918;2023-04-02T12:31:51;7.40;12.00
17215;DHT22;8723;51.502;6.918;2023-04-02T12:34:20;7.40;5.90
17215;DHT22;8723;51.502;6.918;2023-04-02T12:36:54;7.50;7.50
17215;DHT22;8723;51.502;6.918;2023-04-02T12:39:22;7.50;2.90
17215;DHT22;8723;51.502;6.918;2023-04-02T12:41:50;7.40;8.40
17215;DHT22;8723;51.502;6.918;2023-04-02T12:44:18;7.40;8.00
17215;DHT22;8723;51.502;6.918;2023-04-02T12:46:47;7.40;9.10
17215;DHT22;8723;51.502;6.918;2023-04-02T12:49:24;7.40;10.90
17215;DHT22;8723;51.502;6.918;2023-04-02T12:51:54;7.40;7.80
17215;DHT22;8723;51.502;6.918;2023-04-02T12:54:21;7.40;15.80
17215;DHT22;8723;51.502;6.918;2023-04-02T12:56:50;7.40;8.60
17215;DHT22;8723;51.502;6.918;2023-04-02T12:59:29;7.40;7.10
17215;DHT22;8723;51.502;6.918;2023-04-02T13:01:58;7.40;6.70
17215;DHT22;8723;51.502;6.918;2023-04-02T13:04:25;7.40;5.10
17215;DHT22;8723;51.502;6.918;2023-04-02T13:06:52;7.60;1.00
17215;DHT22;8723;51.502;6.918;2023-04-02T13:09:30;7.60;1.00
17215;DHT22;8723;51.502;6.918;2023-04-02T13:12:01;7.70;1.00
17215;DHT22;8723;51.502;6.918;2023-04-02T13:14:28;7.80;1.00
17215;DHT22;8723;51.502;6.918;2023-04-02T13:16:56;8.00;1.20
17215;DHT22;8723;51.502;6.918;2023-04-02T13:19:25;8.10;1.00
17215;DHT22;8723;51.502;6.918;2023-04-02T13:21:54;8.00;1.00
17215;DHT22;8723;51.502;6.918;2023-04-02T13:24:23;8.00;1.00
17215;DHT22;8723;51.502;6.918;2023-04-02T13:26:54;8.10;1.00
17215;DHT22;8723;51.502;6.918;2023-04-02T13:29:26;8.20;1.00
17215;DHT22;8723;51.502;6.918;2023-04-02T13:31:56;8.20;1.00
17215;DHT22;8723;51.502;6.918;2023-04-02T13:34:23;8.20;1.00
17215;DHT22;8723;51.502;6.918;2023-04-02T13:36:50;8.10;1.00
17215;DHT22;8723;51.502;6.918;2023-04-02T13:39:17;8.00;1.00
17215;DHT22;8723;51.502;6.918;2023-04-02T13:41:47;8.00;1.00
17215;DHT22;8723;51.502;6.918;2023-04-02T13:44:19;8.00;1.00
17215;DHT22;8723;51.502;6.918;2023-04-02T13:46:47;8.10;1.00
17215;DHT22;8723;51.502;6.918;2023-04-02T13:49:14;8.30;1.00
17215;DHT22;8723;51.502;6.918;2023-04-02T13:51:43;8.30;1.00
17215;DHT22;8723;51.502;6.918;2023-04-02T13:54:15;8.30;1.00
17215;DHT22;8723;51.502;6.918;2023-04-02T13:56:43;8.30;1.00
17215;DHT22;8723;51.502;6.918;2023-04-02T13:59:11;8.40;1.00
17215;DHT22;8723;51.502;6.918;2023-04-02T14:01:39;8.30;1.00
17215;DHT22;8723;51.502;6.918;2023-04-02T14:04:09;8.20;1.00
17215;DHT22;8723;51.502;6.918;2023-04-02T14:06:53;8.10;1.00
17215;DHT22;8723;51.502;6.918;2023-04-02T14:09:27;8.00;1.00
17215;DHT22;8723;51.502;6.918;2023-04-02T14:12:04;8.00;1.00
17215;DHT22;8723;51.502;6.918;2023-04-02T14:14:45;8.00;1.00
17215;DHT22;8723;51.502;6.918;2023-04-02T14:17:23;8.10;1.00
17215;DHT22;8723;51.502;6.918;2023-04-02T14:20:15;8.10;1.00
17215;DHT22;8723;51.502;6.918;2023-04-02T14:22:56;8.10;1.00
17215;DHT22;8723;51.502;6.918;2023-04-02T14:25:31;8.20;1.00
17215;DHT22;8723;51.502;6.918;2023-04-02T14:28:05;8.40;1.00
17215;DHT22;8723;51.502;6.918;2023-04-02T14:30:40;8.40;1.00
17215;DHT22;8723;51.502;6.918;2023-04-02T14:33:16;8.40;1.00
17215;DHT22;8723;51.502;6.918;2023-04-02T14:35:53;8.40;1.00
17215;DHT22;8723;51.502;6.918;2023-04-02T14:38:24;8.40;1.00
17215;DHT22;8723;51.502;6.918;2023-04-02T14:40:56;8.40;1.00
17215;DHT22;8723;51.502;6.918;2023-04-02T14:43:28;8.40;1.00
17215;DHT22;8723;51.502;6.918;2023-04-02T14:45:58;8.40;1.00
17215;DHT22;8723;51.502;6.918;2023-04-02T14:48:36;8.60;1.00
17215;DHT22;8723;51.502;6.918;2023-04-02T14:51:13;8.60;1.00
17215;DHT22;8723;51.502;6.918;2023-04-02T14:53:48;8.70;1.00
17215;DHT22;8723;51.502;6.918;2023-04-02T14:56:18;8.50;1.00
17215;DHT22;8723;51.502;6.918;2023-04-02T14:58:52;8.40;1.00
17215;DHT22;8723;51.502;6.918;2023-04-02T15:01:24;8.50;1.00
17215;DHT22;8723;51.502;6.918;2023-04-02T15:03:55;8.60;1.00
17215;DHT22;8723;51.502;6.918;2023-04-02T15:06:29;8.80;1.00
17215;DHT22;8723;51.502;6.918;2023-04-02T15:09:02;8.80;1.00
17215;DHT22;8723;51.502;6.918;2023-04-02T15:11:35;8.80;1.00
17215;DHT22;8723;51.502;6.918;2023-04-02T15:14:05;8.60;1.00
17215;DHT22;8723;51.502;6.918;2023-04-02T15:16:36;8.50;1.00
17215;DHT22;8723;51.502;6.918;2023-04-02T15:19:09;8.50;1.00
17215;DHT22;8723;51.502;6.918;2023-04-02T15:21:56;8.60;1.00
17215;DHT22;8723;51.502;6.918;2023-04-02T15:24:31;8.70;1.00
17215;DHT22;8723;51.502;6.918;2023-04-02T15:27:04;8.70;1.00
17215;DHT22;8723;51.502;6.918;2023-04-02T15:29:41;8.50;1.00
17215;DHT22;8723;51.502;6.918;2023-04-02T15:32:21;8.40;1.00
17215;DHT22;8723;51.502;6.918;2023-04-02T15:34:54;8.40;1.00
17215;DHT22;8723;51.502;6.918;2023-04-02T15:37:27;8.50;1.00
17215;DHT22;8723;51.502;6.918;2023-04-02T15:40:17;8.50;1.00
17215;DHT22;8723;51.502;6.918;2023-04-02T15:42:51;8.50;1.00
17215;DHT22;8723;51.502;6.918;2023-04-02T15:45:25;8.40;1.00
17215;DHT22;8723;51.502;6.918;2023-04-02T15:48:25;8.40;1.00
17215;DHT22;8723;51.502;6.918;2023-04-02T15:51:10;8.30;1.00
17215;DHT22;8723;51.502;6.918;2023-04-02T15:53:46;8.30;1.00
17215;DHT22;8723;51.502;6.918;2023-04-02T15:56:18;8.40;1.00
17215;DHT22;8723;51.502;6.918;2023-04-02T15:59:02;8.50;1.00
17215;DHT22;8723;51.502;6.918;2023-04-02T16:01:40;8.50;1.00
17215;DHT22;8723;51.502;6.918;2023-04-02T16:04:31;8.40;1.00
17215;DHT22;8723;51.502;6.918;2023-04-02T16:07:23;8.30;1.00
17215;DHT22;8723;51.502;6.918;2023-04-02T16:10:01;8.40;1.00
17215;DHT22;8723;51.502;6.918;2023-04-02T16:12:30;8.40;1.00
17215;DHT22;8723;51.502;6.918;2023-04-02T16:15:06;8.40;1.00
17215;DHT22;8723;51.502;6.918;2023-04-02T16:17:37;8.20;1.00
17215;DHT22;8723;51.502;6.918;2023-04-02T16:20:15;8.10;1.00
17215;DHT22;8723;51.502;6.918;2023-04-02T16:22:47;8.00;1.00
17215;DHT22;8723;51.502;6.918;2023-04-02T16:25:18;8.00;1.00
17215;DHT22;8723;51.502;6.918;2023-04-02T16:27:50;7.90;1.00
17215;DHT22;8723;51.502;6.918;2023-04-02T16:30:34;7.90;1.00
17215;DHT22;8723;51.502;6.918;2023-04-02T16:33:16;7.80;1.00
17215;DHT22;8723;51.502;6.918;2023-04-02T16:35:53;7.80;1.00
17215;DHT22;8723;51.502;6.918;2023-04-02T16:38:34;7.80;1.00
17215;DHT22;8723;51.502;6.918;2023-04-02T16:41:11;7.80;1.00
17215;DHT22;8723;51.502;6.918;2023-04-02T16:43:44;7.70;1.00
17215;DHT22;8723;51.502;6.918;2023-04-02T16:46:19;7.60;1.00
17215;DHT22;8723;51.502;6.918;2023-04-02T16:48:50;7.60;1.00